Startpagina
METAR-TAF:

METAR-TAF

Vliegvelden :

Kermanshah, Iran

breedte: 34-16N, lengte: 047-07E, hoogte: 1320 m

Actueel weer

Dit bericht is 34 minuten geleden gemaakt, om 00:00 UTC
Weinig wind
Temperatuur 18°C
Vochtigheid 28%
Druk 1009 hPa
Zicht 10 km of meer
geen wolken onder 1500 m en geen cumulonimbus

METAR: OICC 170000Z 00000KT CAVOK 18/M01 Q1008 A2979

Tijdstip: 05:04 (00:34 UTC)


TAF: ontbreekt

Waarnemingen en weersverwachtingen van meer dan 4000 vliegvelden (METAR en TAF).

De beschikbare stations zijn de gele en rode punten op de kaart.

Ga met uw muis naar het station om de naam te zien.

Klik dan om waarnemingen en weersverwachtingen te zien.

kaart wijzigen: klik op de groene knoppen met een zwart kruis om in te zoomen, op de groene knop met een streepje om uit te zoomen of op de groene pijlen voor aangrenzende kaarten.


METAR-TAF: